Latest Weather Observations for Argyle

IDD60801

Issued at 4:01 pm CST Saturday 25 February 2017 (issued every 30 minutes, with the page automatically refreshed every 10 minutes)

About weather observations | Map of weather stations | Latest weather observations for NT | Other Formats
Station Details ID: 002064 Name: ARGYLE AERODROME Lat: -16.64 Lon: 128.45 Height: 164.0 m
Data from the previous 72 hours. | See also: Recent months at Argyle
Date/Time
CST
Temp
°C
App
Temp
°C
Dew
Point
°C
Rel
Hum
%
Delta-T
°C
Wind Press
QNH
hPa
Press
MSL
hPa
Rain since
9am
mm
Dir  Spd
km/h
Gust
km/h
Spd
kts
Gust
kts
25/03:30pm 24.6 29.2 22.5 88 1.4 SSE 2 6 1 3 1010.9 - 19.8
25/03:07pm 23.7 27.5 22.8 95 0.6 SE 7 11 4 6 1011.5 - 19.8
25/03:06pm 23.7 27.5 22.8 95 0.6 SE 7 11 4 6 1011.5 - 19.8
25/03:00pm 23.7 27.7 23.1 96 0.4 SE 7 11 4 6 1011.5 - 19.8
25/02:30pm 23.4 25.2 23.3 99 0.1 E 19 26 10 14 1011.9 - 12.0
25/02:22pm 23.5 25.2 23.1 98 0.3 E 19 30 10 16 1012.1 - 7.0
25/02:15pm 24.0 25.5 23.0 94 0.7 ESE 20 33 11 18 1012.4 - 5.2
25/02:00pm 25.3 26.9 23.3 89 1.4 E 20 28 11 15 1012.0 - 5.2
25/01:30pm 26.7 31.5 24.4 87 1.6 SSW 7 11 4 6 1011.9 1010.7 5.2
25/01:00pm 26.0 31.1 24.7 92 0.9 SW 6 9 3 5 1012.1 - 5.2
25/12:30pm 25.5 30.6 24.9 96 0.4 WNW 7 9 4 5 1012.9 - 5.0
25/11:30am 25.4 30.4 24.8 96 0.4 W 7 9 4 5 1013.9 - 2.8
25/11:00am 25.7 31.8 24.4 92 0.9 CALM 0 0 0 0 1014.0 - 1.0
25/10:19am 25.8 31.1 24.4 92 1.0 SE 4 7 2 4 1014.0 - 11.8
25/10:00am 25.6 29.6 24.4 93 0.8 SE 11 13 6 7 1013.7 - 11.8
25/09:52am 25.5 29.4 24.2 92 0.9 SE 11 15 6 8 1013.7 - 11.8
25/09:35am 25.6 29.5 24.2 92 1.0 SSE 11 13 6 7 1013.5 - 11.8
25/09:30am 25.4 29.3 24.2 93 0.8 SSE 11 15 6 8 1013.5 - 11.8
25/08:59am 24.8 27.9 24.1 96 0.5 SSE 15 22 8 12 1013.6 - 11.8
25/08:01am 24.9 29.0 24.0 95 0.6 SSE 9 15 5 8 1013.1 - 11.4
25/08:00am 24.8 29.0 24.1 96 0.5 SSE 9 17 5 9 1013.1 - 11.4
25/07:30am 24.5 28.2 23.9 96 0.4 SSE 11 17 6 9 1012.5 1011.2 11.4
25/07:11am 24.6 28.4 24.0 96 0.4 S 11 17 6 9 1012.5 - 11.4
25/07:00am 24.7 28.5 24.1 96 0.4 SSE 11 15 6 8 1012.4 - 11.4
25/06:30am 24.9 29.4 24.0 95 0.6 SW 7 9 4 5 1011.8 - 11.4
25/06:17am 24.9 29.4 23.7 93 0.8 SSW 6 7 3 4 1011.6 - 11.4
25/06:00am 24.9 29.6 23.9 94 0.7 SW 6 7 3 4 1011.6 - 11.4
25/05:30am 24.9 28.7 24.0 95 0.6 SSE 11 17 6 9 1011.6 - 11.4
25/05:00am 25.3 30.0 24.3 94 0.7 SW 7 11 4 6 1011.3 - 11.4
25/04:30am 24.9 29.5 24.2 96 0.5 W 7 9 4 5 1011.3 1010.0 11.4
25/04:01am 24.8 29.0 24.1 96 0.5 W 9 11 5 6 1011.4 - 11.4
25/04:00am 24.8 29.1 24.2 96 0.4 W 9 11 5 6 1011.4 - 11.4
25/03:42am 24.7 28.5 24.1 96 0.4 NW 11 15 6 8 1011.4 - 11.2
25/03:09am 24.9 28.7 24.0 95 0.6 W 11 13 6 7 1011.7 - 9.4
25/03:00am 24.9 28.8 24.3 96 0.4 W 11 13 6 7 1011.7 - 9.4
25/02:50am 24.9 29.5 24.2 96 0.5 W 7 11 4 6 1011.8 - 8.6
25/02:30am 25.1 29.5 24.5 96 0.4 WNW 9 11 5 6 1011.8 - 7.2
25/01:30am 24.6 28.7 24.0 96 0.4 E 9 13 5 7 1011.6 1010.4 6.2
25/01:00am 25.1 27.1 23.6 91 1.0 ESE 19 26 10 14 1011.8 - 5.8
25/12:30am 24.9 27.5 23.9 94 0.7 SE 17 26 9 14 1011.7 - 5.6
25/12:00am 25.3 29.5 24.1 93 0.8 SSE 9 15 5 8 1012.0 - 5.6
 
Date/Time
CST
Temp
°C
App
Temp
°C
Dew
Point
°C
Rel
Hum
%
Delta-T
°C
Wind Press
QNH
hPa
Press
MSL
hPa
Rain since
9am
mm
Dir  Spd
km/h
Gust
km/h
Spd
kts
Gust
kts
24/11:47pm 25.1 29.3 24.1 94 0.7 SSE 9 19 5 10 1012.1 - 5.6
24/11:30pm 24.6 27.0 23.7 95 0.6 SSE 17 26 9 14 1012.5 - 5.0
24/11:12pm 24.7 27.4 23.5 93 0.8 ESE 15 20 8 11 1012.2 - 2.0
24/11:00pm 25.6 28.6 24.7 95 0.6 ESE 17 30 9 16 1012.4 - 0.8
24/10:30pm 28.4 32.7 23.6 75 3.3 SE 7 11 4 6 1011.4 1010.1 0.8
24/10:00pm 28.5 33.0 23.9 76 3.2 SSE 7 9 4 5 1011.1 - 0.8
24/09:30pm 29.1 32.9 23.5 72 3.9 S 9 13 5 7 1010.7 - 0.8
24/09:00pm 29.1 34.0 24.4 76 3.3 SSE 6 7 3 4 1010.6 - 0.8
24/08:30pm 29.4 34.3 24.4 74 3.5 SE 6 11 3 6 1010.3 - 0.8
24/07:30pm 30.3 34.6 23.7 68 4.6 ESE 7 11 4 6 1009.6 1008.3 0.8
24/07:00pm 31.0 34.6 23.8 65 5.0 ESE 11 15 6 8 1009.0 - 0.8
24/06:30pm 31.8 34.9 24.1 63 5.4 ESE 15 22 8 12 1008.7 - 0.8
24/06:00pm 32.4 35.3 23.2 58 6.4 ESE 13 17 7 9 1008.4 - 0.8
24/05:30pm 32.9 34.9 22.3 53 7.3 E 15 22 8 12 1008.3 - 0.8
24/05:00pm 33.5 35.3 21.8 50 8.0 ESE 15 22 8 12 1008.2 - 0.8
24/04:30pm 35.2 39.4 23.2 49 8.4 WSW 6 9 3 5 1008.2 1006.9 0.8
24/04:00pm 33.2 36.7 22.1 52 7.6 WSW 7 11 4 6 1008.3 - 0.8
24/03:30pm 31.0 33.9 23.2 63 5.4 W 13 22 7 12 1008.5 - 0.8
24/03:00pm 30.9 32.3 22.6 61 5.7 SSE 19 22 10 12 1009.1 - 0.8
24/02:30pm 35.1 36.9 21.2 44 9.5 ESE 13 22 7 12 1009.4 - 0.8
24/01:30pm 34.5 37.9 22.7 50 8.2 ENE 9 19 5 10 1010.3 1009.0 0.8
24/01:00pm 34.0 38.2 23.1 53 7.6 NE 6 15 3 8 1010.9 - 0.8
24/12:30pm 31.4 36.7 24.4 66 4.9 W 4 9 2 5 1011.5 - 0.6
24/12:00pm 32.6 36.9 23.3 58 6.5 S 6 11 3 6 1011.9 - 0.2
24/11:30am 33.9 36.1 21.9 49 8.2 E 13 19 7 10 1012.4 - 0.0
24/11:00am 33.5 35.3 21.8 50 8.0 E 15 26 8 14 1012.8 - 0.0
24/10:30am 32.7 34.0 20.8 49 8.0 E 15 20 8 11 1013.2 1011.9 0.0
24/10:00am 32.4 33.4 20.3 48 8.1 ESE 15 20 8 11 1013.2 - 0.0
24/09:30am 32.2 33.5 20.2 49 8.0 ESE 13 20 7 11 1013.1 - 0.0
24/09:00am 31.0 33.1 20.9 55 6.8 E 11 17 6 9 1012.8 - 0.0
24/08:30am 30.5 33.1 20.1 53 6.9 SSE 6 9 3 5 1012.2 - 0.0
24/08:00am 29.2 31.0 18.2 51 7.1 S 6 7 3 4 1011.7 - 0.0
24/07:30am 28.5 30.3 18.8 55 6.3 SSW 7 9 4 5 1011.3 1010.0 0.0
24/07:00am 28.7 30.2 17.6 51 7.1 SSW 6 7 3 4 1011.1 - 0.0
24/06:30am 28.4 30.2 18.8 56 6.2 SW 7 9 4 5 1011.2 - 0.0
24/06:00am 28.6 30.2 17.8 52 6.9 WSW 6 7 3 4 1011.0 - 0.0
24/04:30am 28.5 30.3 17.3 50 7.1 NNW 4 7 2 4 1010.5 - 0.0
24/03:30am 28.5 28.9 15.4 45 8.1 E 7 11 4 6 1010.2 - 0.0
24/03:00am 28.8 29.4 15.3 43 8.3 E 6 9 3 5 1010.2 - 0.0
24/02:00am 30.5 29.4 12.0 32 10.9 S 9 13 5 7 1010.4 - 0.0
24/01:30am 28.6 28.6 14.2 41 8.7 SSE 7 9 4 5 1010.5 1009.2 0.0
24/01:00am 29.1 30.5 16.3 46 8.0 W 4 7 2 4 1010.4 - 0.0
24/12:30am 29.0 29.8 15.8 44 8.2 W 6 9 3 5 1010.4 - 0.0
24/12:00am 30.5 32.2 15.1 39 9.5 CALM 0 0 0 0 1010.5 - 0.0
 
Date/Time
CST
Temp
°C
App
Temp
°C
Dew
Point
°C
Rel
Hum
%
Delta-T
°C
Wind Press
QNH
hPa
Press
MSL
hPa
Rain since
9am
mm
Dir  Spd
km/h
Gust
km/h
Spd
kts
Gust
kts
23/11:30pm 30.4 30.6 14.6 38 9.7 SW 7 9 4 5 1010.6 - 0.0
23/11:00pm 30.2 30.5 14.9 39 9.4 SW 7 9 4 5 1010.5 - 0.0
23/10:30pm 30.6 32.1 16.7 43 8.8 SSW 4 7 2 4 1010.6 1009.3 0.0
23/10:00pm 30.3 31.8 17.5 46 8.2 SSE 6 7 3 4 1010.4 - 0.0
23/09:30pm 32.2 31.6 13.6 32 11.3 SSE 9 11 5 6 1010.2 - 0.0
23/09:18pm 31.7 31.8 14.5 35 10.6 SE 7 9 4 5 1010.2 - 0.0
23/09:01pm 31.7 32.2 15.1 36 10.3 ESE 6 7 3 4 1010.0 - 0.0
23/09:00pm 31.7 32.1 14.7 35 10.5 ESE 6 7 3 4 1010.0 - 0.0
23/08:30pm 32.0 33.0 16.4 39 9.9 ESE 6 7 3 4 1009.6 - 0.0
23/08:00pm 32.8 33.1 15.0 34 11.1 E 7 9 4 5 1009.2 - 0.0
23/07:30pm 33.5 33.8 15.1 33 11.5 ENE 7 9 4 5 1008.8 1007.5 0.0
23/07:00pm 35.2 34.7 13.8 27 13.2 SE 9 11 5 6 1008.4 - 0.0
23/06:30pm 36.9 33.7 9.8 19 15.9 SE 17 26 9 14 1008.2 - 0.0
23/06:00pm 37.6 34.2 9.0 17 16.6 SE 17 26 9 14 1008.0 - 0.0
23/05:00pm 38.2 34.9 10.8 19 16.4 ESE 19 28 10 15 1007.8 - 0.0
23/04:30pm 38.4 34.9 10.3 18 16.7 SE 19 28 10 15 1008.0 1006.7 0.0
23/04:00pm 38.5 34.9 10.7 18 16.6 ESE 20 32 11 17 1008.2 - 0.0
23/03:30pm 38.2 35.1 12.1 21 15.9 SE 20 30 11 16 1008.4 - 0.0
23/03:00pm 38.3 34.9 10.6 19 16.5 ESE 19 28 10 15 1008.8 - 0.0
23/02:30pm 38.3 35.0 10.9 19 16.4 SSE 19 33 10 18 1009.1 - 0.0
23/02:00pm 37.9 35.2 10.2 18 16.4 SSE 15 28 8 15 1009.5 - 0.0
23/01:30pm 36.6 36.6 17.2 31 12.6 E 13 19 7 10 1009.9 1008.6 0.0
23/01:00pm 36.1 35.7 17.1 32 12.3 E 15 20 8 11 1010.4 - 0.0
23/12:30pm 36.2 37.1 17.5 33 12.2 ESE 9 15 5 8 1010.8 - 0.0
23/12:00pm 35.2 35.6 18.1 36 11.2 ESE 13 20 7 11 1011.1 - 0.0
23/11:30am 34.1 35.3 18.2 39 10.4 SSE 9 15 5 8 1011.4 - 0.0
23/11:00am 33.7 34.7 18.6 40 9.9 S 11 19 6 10 1011.6 - 0.0
23/10:30am 33.3 34.6 18.5 41 9.7 S 9 15 5 8 1011.6 1010.4 0.0
23/10:00am 32.1 33.3 18.3 44 9.0 SSW 9 15 5 8 1011.7 - 0.0
23/09:30am 30.9 32.5 19.2 49 7.7 SSE 9 13 5 7 1012.0 - 0.0
23/09:00am 29.0 30.7 18.1 51 7.0 E 6 9 3 5 1011.9 - 0.0
23/08:30am 28.0 29.4 17.4 52 6.7 E 6 9 3 5 1011.6 - 0.0
23/08:00am 27.4 28.1 15.7 48 7.2 SSE 6 9 3 5 1011.4 - 0.0
23/07:30am 25.2 25.9 16.1 57 5.6 SE 7 9 4 5 1011.4 1010.1 0.0
23/07:00am 24.9 25.8 15.0 54 6.0 S 4 7 2 4 1011.1 - 0.0
23/06:30am 23.5 26.1 17.4 68 3.8 CALM 0 7 0 4 1010.8 - 0.0
23/06:00am 23.8 24.1 16.1 62 4.7 SSW 9 11 5 6 1010.4 - 0.0
23/05:30am 23.9 24.0 16.4 63 4.6 SSW 11 17 6 9 1010.3 - 0.0
23/05:00am 24.1 24.5 16.3 61 4.8 S 9 15 5 8 1009.9 - 0.0
23/04:30am 24.5 24.7 15.8 58 5.3 S 9 13 5 7 1009.7 1008.4 0.0
23/04:00am 25.0 25.6 15.9 57 5.6 WSW 7 11 4 6 1009.5 - 0.0
23/03:30am 25.1 25.7 15.8 56 5.7 WSW 7 9 4 5 1009.5 - 0.0
23/03:00am 26.7 26.5 14.8 48 7.2 SW 9 13 5 7 1009.7 - 0.0
23/02:30am 26.9 25.9 14.7 47 7.4 SW 13 15 7 8 1010.1 - 0.0
23/02:00am 26.8 26.2 14.6 47 7.4 WSW 11 13 6 7 1010.5 - 0.0
23/01:30am 26.7 26.2 14.8 48 7.2 WSW 11 13 6 7 1011.0 1009.7 0.0
23/01:00am 26.7 26.5 15.8 51 6.7 WSW 11 13 6 7 1011.3 - 0.0
23/12:30am 26.5 26.1 16.2 53 6.4 W 13 15 7 8 1011.5 - 0.0
23/12:00am 26.3 26.9 17.6 58 5.5 W 11 13 6 7 1011.8 - 0.0
 
Date/Time
CST
Temp
°C
App
Temp
°C
Dew
Point
°C
Rel
Hum
%
Delta-T
°C
Wind Press
QNH
hPa
Press
MSL
hPa
Rain since
9am
mm
Dir  Spd
km/h
Gust
km/h
Spd
kts
Gust
kts
22/11:30pm 26.5 26.7 17.7 58 5.6 WNW 13 13 7 7 1011.7 - 0.0
22/11:00pm 26.9 27.6 17.9 57 5.7 WNW 11 13 6 7 1011.8 - 0.0
22/10:30pm 27.4 28.3 18.4 58 5.8 NW 11 13 6 7 1011.5 1010.3 0.0
22/10:00pm 28.0 29.8 18.7 57 6.0 NW 7 9 4 5 1011.3 - 0.0
22/09:30pm 28.2 30.0 19.5 59 5.7 NW 9 9 5 5 1011.1 - 0.0
22/09:00pm 29.4 30.3 16.7 46 8.0 WNW 7 9 4 5 1010.7 - 0.0
22/08:30pm 31.4 31.7 14.9 36 10.2 NNW 7 9 4 5 1010.3 - 0.0
22/08:00pm 31.9 32.6 16.0 38 10.0 N 7 7 4 4 1010.0 - 0.0
22/07:30pm 31.8 32.4 15.7 37 10.1 NE 7 9 4 5 1009.6 1008.3 0.0
22/07:00pm 34.0 34.1 13.8 29 12.4 SSE 6 9 3 5 1009.4 - 0.0
22/06:30pm 35.3 34.0 11.3 23 14.3 SSE 9 13 5 7 1009.1 - 0.0
22/06:00pm 35.9 34.4 12.0 23 14.4 SE 11 17 6 9 1009.2 - 0.0

Other Formats:

Comma delimited format used in spreadsheet applications
http://www.bom.gov.au/fwo/IDD60801/IDD60801.94217.axf

JavaScript Object Notation format (JSON) in row-major order
http://www.bom.gov.au/fwo/IDD60801/IDD60801.94217.json